Time;durP1;ratioP1;P1;durP2;ratioP2;P2;SDS_P1;SDS_P2;PMS_P1;PMS_P2;Temp;Humidity;BMP_temperature;BMP_pressure;BME280_temperature;BME280_humidity;BME280_pressure;Samples;Min_cycle;Max_cycle;Signal;HPM_P1;HPM_P2
2022/07/14 00:05:25;;;;;;;12.10;4.82;;;;;;;20.13;55.33;101398.28;673717;29;1447;-76
2022/07/14 00:31:17;;;;;;;;;;;;;;;;;;;;;
2022/07/14 00:58:36;;;;;;;8.32;4.00;;;;;;;19.67;56.37;101394.75;671118;29;1446;-76
2022/07/14 01:06:16;;;;;;;12.27;4.15;;;;;;;19.38;57.21;101393.00;671535;29;1557;-76
2022/07/14 01:06:45;;;;;;;9.52;3.97;;;;;;;19.30;57.15;101382.41;668726;29;1466;-76
2022/07/14 01:27:07;;;;;;;10.45;4.25;;;;;;;18.95;58.13;101361.13;673697;29;1320;-76
2022/07/14 01:37:48;;;;;;;13.27;4.50;;;;;;;18.75;58.88;101380.47;658975;30;1317;-76
2022/07/14 01:38:13;;;;;;;14.50;4.90;;;;;;;18.76;58.78;101377.81;658615;29;1736;-77
2022/07/14 01:38:35;;;;;;;11.93;5.03;;;;;;;18.73;58.78;101379.56;659057;29;1589;-77
2022/07/14 01:38:58;;;;;;;14.65;4.90;;;;;;;18.74;58.92;101376.03;656180;30;1349;-76
2022/07/14 01:39:20;;;;;;;14.77;4.80;;;;;;;18.79;58.72;101386.66;657049;30;1998;-76
2022/07/14 01:39:42;;;;;;;14.00;4.70;;;;;;;18.75;58.76;101376.06;656827;29;1802;-76
2022/07/14 01:40:06;;;;;;;12.18;4.53;;;;;;;18.76;58.78;101383.09;658440;29;1871;-77
2022/07/14 01:40:27;;;;;;;14.10;4.90;;;;;;;18.79;58.56;101376.09;653152;30;1549;-76
2022/07/14 01:40:48;;;;;;;12.57;4.80;;;;;;;18.78;58.83;101380.47;663100;29;1418;-76
2022/07/14 01:41:10;;;;;;;14.75;5.20;;;;;;;18.78;58.71;101375.19;663431;29;1608;-76
2022/07/14 01:41:32;;;;;;;13.88;5.15;;;;;;;18.77;58.75;101381.38;665284;29;1598;-76
2022/07/14 01:41:53;;;;;;;14.38;5.03;;;;;;;18.81;58.55;101383.13;663071;29;1497;-76
2022/07/14 01:42:16;;;;;;;9.50;4.40;;;;;;;18.77;58.70;101379.59;668128;29;2145;-76
2022/07/14 01:42:39;;;;;;;10.50;4.40;;;;;;;18.75;58.64;101378.69;664560;29;1434;-76
2022/07/14 01:43:03;;;;;;;9.90;4.38;;;;;;;18.76;58.68;101374.31;666156;29;1450;-76
2022/07/14 01:43:24;;;;;;;9.45;4.35;;;;;;;18.77;58.49;101384.00;664912;29;1212;-76
2022/07/14 01:43:46;;;;;;;9.30;4.40;;;;;;;18.81;58.69;101385.75;660239;29;1802;-76
2022/07/14 01:44:07;;;;;;;10.07;4.30;;;;;;;18.77;58.58;101381.38;668463;29;1643;-76
2022/07/14 01:44:30;;;;;;;13.23;4.57;;;;;;;18.75;58.48;101380.47;676467;28;1467;-76
2022/07/14 01:44:52;;;;;;;14.52;4.80;;;;;;;18.75;58.49;101381.34;681883;29;1445;-77
2022/07/14 01:45:14;;;;;;;15.00;4.97;;;;;;;18.75;58.41;101381.34;682868;28;2165;-76
2022/07/14 01:45:36;;;;;;;12.10;4.90;;;;;;;18.74;58.65;101389.25;684286;28;1220;-76
2022/07/14 01:45:57;;;;;;;9.95;4.72;;;;;;;18.74;58.51;101386.63;683966;28;1368;-77
2022/07/14 01:46:21;;;;;;;10.02;4.90;;;;;;;18.74;58.63;101386.63;681670;28;1193;-76
2022/07/14 01:46:42;;;;;;;13.10;4.80;;;;;;;18.71;58.74;101383.97;684914;28;1436;-76
2022/07/14 01:47:03;;;;;;;15.27;4.60;;;;;;;18.71;58.69;101389.25;684638;28;1146;-76
2022/07/14 01:47:25;;;;;;;14.10;4.47;;;;;;;18.74;58.78;101394.53;682395;28;1083;-76
2022/07/14 01:47:47;;;;;;;10.98;4.32;;;;;;;18.69;58.78;101385.75;687581;28;1115;-77
2022/07/14 01:48:09;;;;;;;9.73;4.40;;;;;;;18.70;58.78;101390.13;686512;28;1649;-76
2022/07/14 01:48:30;;;;;;;9.68;4.40;;;;;;;18.68;58.64;101389.25;683630;28;1493;-76
2022/07/14 01:48:52;;;;;;;11.23;4.63;;;;;;;18.70;58.70;101392.78;684371;28;1454;-76
2022/07/14 01:49:14;;;;;;;10.10;4.32;;;;;;;18.63;58.99;101390.09;689671;28;1415;-77
2022/07/14 01:49:36;;;;;;;10.23;4.32;;;;;;;18.63;58.99;101389.25;684845;28;1148;-76
2022/07/14 01:50:02;;;;;;;12.15;4.40;;;;;;;18.61;59.26;101394.50;687896;28;1269;-76
2022/07/14 01:50:28;;;;;;;12.63;4.50;;;;;;;18.62;59.04;101391.00;683649;28;1361;-77
2022/07/14 01:50:50;;;;;;;13.55;4.60;;;;;;;18.60;59.04;101390.09;685322;28;1305;-77
2022/07/14 01:51:13;;;;;;;11.68;4.50;;;;;;;18.60;58.93;101387.47;684365;28;1749;-76
2022/07/14 01:51:36;;;;;;;12.20;4.63;;;;;;;18.62;59.12;101385.72;684741;28;1251;-76
2022/07/14 01:52:00;;;;;;;11.85;4.63;;;;;;;18.61;59.07;101389.22;686814;28;946;-77
2022/07/14 01:52:24;;;;;;;12.32;4.60;;;;;;;18.61;59.05;101388.34;684807;28;1619;-77
2022/07/14 01:52:45;;;;;;;13.13;4.55;;;;;;;18.64;59.12;101391.88;679759;29;836;-77
2022/07/14 01:53:07;;;;;;;13.55;4.68;;;;;;;18.70;58.90;101390.13;682355;28;1462;-76
2022/07/14 01:53:29;;;;;;;13.02;4.70;;;;;;;18.67;58.95;101390.16;685870;28;1916;-76
2022/07/14 01:53:52;;;;;;;12.15;4.60;;;;;;;18.66;59.00;101385.72;685284;28;1212;-76
2022/07/14 02:12:41;;;;;;;;;;;;;;;;;;;;;
2022/07/14 02:22:05;;;;;;;11.02;4.13;;;;;;;18.76;57.84;101401.63;674263;29;1343;-82
2022/07/14 02:22:30;;;;;;;11.98;4.38;;;;;;;18.74;57.89;101405.13;670477;29;1461;-82
2022/07/14 02:22:58;;;;;;;9.68;4.18;;;;;;;18.77;57.95;101413.94;668526;29;1511;-82
2022/07/14 02:23:33;;;;;;;10.23;4.10;;;;;;;18.74;58.07;101405.13;662318;29;1490;-82
2022/07/14 02:23:57;;;;;;;13.43;4.28;;;;;;;18.72;58.14;101412.19;666769;29;1451;-82
2022/07/14 02:24:21;;;;;;;12.25;4.65;;;;;;;18.70;58.08;101400.72;667058;29;1691;-82
2022/07/14 02:24:43;;;;;;;14.82;5.18;;;;;;;18.68;58.13;101403.34;666713;29;1497;-82
2022/07/14 02:25:05;;;;;;;12.55;4.93;;;;;;;18.64;58.24;101399.81;668963;29;1582;-82
2022/07/14 02:25:27;;;;;;;12.70;4.30;;;;;;;18.66;58.33;101402.47;671266;29;1536;-82
2022/07/14 02:25:58;;;;;;;11.05;4.00;;;;;;;18.66;58.07;101405.09;671241;29;1645;-82
2022/07/14 02:26:20;;;;;;;9.75;4.00;;;;;;;18.62;58.28;101401.56;674693;29;1515;-82
2022/07/14 02:26:43;;;;;;;11.90;4.40;;;;;;;18.61;58.53;101399.81;672299;29;1426;-82
2022/07/14 02:27:05;;;;;;;17.38;4.30;;;;;;;18.60;58.47;101398.03;672767;29;1791;-82
2022/07/14 02:27:28;;;;;;;18.25;4.60;;;;;;;18.62;58.27;101406.84;676331;29;1478;-83
2022/07/14 02:27:50;;;;;;;12.75;4.30;;;;;;;18.61;58.31;101404.19;674226;29;1350;-82
2022/07/14 02:28:10;;;;;;;11.00;4.25;;;;;;;18.59;58.48;101406.84;670617;29;1761;-83
2022/07/14 02:28:31;;;;;;;10.50;4.10;;;;;;;18.56;58.64;101404.19;671176;29;1506;-83
2022/07/14 02:28:53;;;;;;;13.27;4.53;;;;;;;18.57;58.55;101405.06;670340;29;1579;-82
2022/07/14 02:29:15;;;;;;;12.68;4.80;;;;;;;18.55;58.51;101404.19;668726;29;2049;-82
2022/07/14 02:32:57;;;;;;;15.80;5.07;;;;;;;18.52;58.72;101407.69;676537;29;1410;-82
2022/07/14 02:33:21;;;;;;;16.83;5.32;;;;;;;18.45;58.64;101396.19;677022;29;2090;-83
2022/07/14 02:33:45;;;;;;;15.20;5.28;;;;;;;18.45;58.90;101408.53;679926;29;1447;-83
2022/07/14 02:34:08;;;;;;;15.10;4.97;;;;;;;18.40;58.97;101400.59;674689;29;1442;-83
2022/07/14 02:34:30;;;;;;;14.40;4.85;;;;;;;18.43;59.02;101407.66;670407;29;1451;-82
2022/07/14 02:34:52;;;;;;;12.75;4.70;;;;;;;18.40;59.17;101404.97;672059;29;1973;-83
2022/07/14 02:35:14;;;;;;;14.70;5.30;;;;;;;18.42;59.38;101411.13;676917;29;1976;-83
2022/07/14 02:43:43;;;;;;;14.00;5.00;;;;;;;18.36;59.49;101399.69;673471;29;1429;-83
2022/07/14 02:44:09;;;;;;;12.93;4.93;;;;;;;18.34;59.41;101393.47;667762;29;1459;-82
2022/07/14 02:44:31;;;;;;;12.82;4.97;;;;;;;18.32;59.52;101389.09;671949;29;1466;-83
2022/07/14 04:07:34;;;;;;;14.80;5.00;;;;;;;18.11;59.86;101389.78;683465;28;1481;-82
2022/07/14 04:07:59;;;;;;;14.57;5.20;;;;;;;18.14;59.48;101389.81;679367;29;1446;-82
2022/07/14 04:08:24;;;;;;;10.27;4.85;;;;;;;18.15;59.67;101394.25;677009;29;1410;-82
2022/07/14 04:08:52;;;;;;;15.80;5.05;;;;;;;18.18;59.54;101394.28;671414;29;1383;-82
2022/07/14 04:09:15;;;;;;;17.92;5.07;;;;;;;18.17;59.60;101385.47;673989;29;1426;-82
2022/07/14 04:09:41;;;;;;;16.90;5.22;;;;;;;18.24;59.43;101396.97;676479;29;1451;-82
2022/07/14 04:10:03;;;;;;;15.48;5.30;;;;;;;18.25;59.44;101389.94;680524;29;1760;-81
2022/07/14 04:10:24;;;;;;;13.48;5.18;;;;;;;18.26;59.43;101392.56;676745;29;1832;-83
2022/07/14 04:10:45;;;;;;;12.02;4.60;;;;;;;18.26;59.21;101387.28;676527;29;1528;-83
2022/07/14 04:11:07;;;;;;;12.27;4.50;;;;;;;18.30;59.30;101389.06;677178;29;1501;-83
2022/07/14 04:11:31;;;;;;;12.43;4.78;;;;;;;18.33;59.08;101393.50;678584;29;1626;-82
2022/07/14 04:11:54;;;;;;;12.65;5.25;;;;;;;18.32;59.08;101387.31;679252;29;1042;-82
2022/07/14 04:12:17;;;;;;;11.70;5.20;;;;;;;18.34;59.04;101385.56;676066;29;1480;-83
2022/07/14 04:12:39;;;;;;;13.57;5.32;;;;;;;18.41;59.08;101396.16;682103;28;1891;-81
2022/07/14 04:13:02;;;;;;;14.48;5.38;;;;;;;18.37;58.88;101387.34;680627;29;1609;-82
2022/07/14 04:13:25;;;;;;;15.63;5.57;;;;;;;18.42;58.82;101392.66;675991;29;1893;-82
2022/07/14 04:13:49;;;;;;;13.90;5.20;;;;;;;18.40;58.80;101386.47;674155;29;1722;-82
2022/07/14 04:14:12;;;;;;;12.05;4.57;;;;;;;18.36;58.70;101378.53;677332;29;1360;-82
2022/07/14 04:14:34;;;;;;;10.63;4.20;;;;;;;18.39;58.77;101379.44;677749;29;1262;-82
2022/07/14 04:14:57;;;;;;;9.45;3.92;;;;;;;18.40;58.48;101381.19;679755;29;1131;-82
2022/07/14 04:15:19;;;;;;;10.82;4.10;;;;;;;18.44;58.64;101390.91;679120;29;1415;-82
2022/07/14 04:15:59;;;;;;;11.30;4.50;;;;;;;18.42;58.56;101387.34;676677;29;1385;-82
2022/07/14 04:16:24;;;;;;;15.30;5.30;;;;;;;18.45;58.45;101384.75;675034;29;1258;-82
2022/07/14 04:16:47;;;;;;;15.60;5.30;;;;;;;18.44;58.41;101380.34;674627;29;1218;-82
2022/07/14 04:17:09;;;;;;;13.65;4.57;;;;;;;18.47;58.50;101383.88;674723;29;1187;-82
2022/07/14 04:17:31;;;;;;;12.18;4.40;;;;;;;18.48;58.34;101390.03;673703;29;1296;-82
2022/07/14 04:17:53;;;;;;;12.75;4.32;;;;;;;18.47;58.33;101381.25;677157;29;1243;-83
2022/07/14 04:18:15;;;;;;;13.38;4.60;;;;;;;18.44;58.26;101378.56;674786;29;1088;-83
2022/07/14 04:18:39;;;;;;;14.02;4.60;;;;;;;18.45;58.08;101375.03;678440;29;1289;-82
2022/07/14 04:19:02;;;;;;;12.85;4.40;;;;;;;18.49;58.22;101391.81;679353;29;1379;-82
2022/07/14 04:19:23;;;;;;;12.75;4.40;;;;;;;18.47;58.18;101377.72;684194;28;2040;-82
2022/07/14 04:19:45;;;;;;;14.25;4.90;;;;;;;18.49;58.36;101383.88;679236;29;1273;-82
2022/07/14 04:20:09;;;;;;;14.50;5.00;;;;;;;18.44;58.03;101375.06;674233;29;1380;-82
2022/07/14 04:20:36;;;;;;;14.63;4.57;;;;;;;18.46;58.10;101379.50;671760;29;1450;-82
2022/07/14 04:21:00;;;;;;;13.50;4.60;;;;;;;18.46;58.12;101366.28;673988;29;2159;-82
2022/07/14 04:21:22;;;;;;;13.02;5.00;;;;;;;18.40;58.05;101362.69;674253;29;1791;-82
2022/07/14 04:21:45;;;;;;;16.17;5.40;;;;;;;18.46;58.20;101378.59;679022;29;1326;-81
2022/07/14 04:22:07;;;;;;;12.57;4.78;;;;;;;18.44;58.10;101370.63;677270;29;1090;-82
2022/07/14 04:22:30;;;;;;;10.17;4.30;;;;;;;18.43;58.19;101373.31;677603;29;2189;-82
2022/07/14 04:22:51;;;;;;;12.88;4.40;;;;;;;18.42;58.27;101372.41;677368;29;1826;-82
2022/07/14 04:23:13;;;;;;;16.42;4.50;;;;;;;18.40;58.16;101373.25;676704;29;1478;-83
2022/07/14 04:23:35;;;;;;;17.33;4.80;;;;;;;18.40;58.16;101374.16;674592;29;1428;-82
2022/07/14 04:23:56;;;;;;;14.15;4.50;;;;;;;18.40;58.09;101375.91;679641;29;1298;-83
2022/07/14 04:24:18;;;;;;;15.00;5.20;;;;;;;18.40;58.10;101375.91;671550;29;1752;-82
2022/07/14 04:24:41;;;;;;;14.40;4.93;;;;;;;18.38;58.32;101369.75;676988;29;1258;-82
2022/07/14 04:25:02;;;;;;;13.50;4.72;;;;;;;18.33;58.22;101362.66;678847;29;1357;-82
2022/07/14 04:25:23;;;;;;;11.73;4.03;;;;;;;18.31;58.38;101358.28;675710;29;1727;-82
2022/07/14 04:25:47;;;;;;;15.75;4.80;;;;;;;18.29;58.29;101360.91;679524;29;1249;-81
2022/07/14 04:26:10;;;;;;;16.48;5.30;;;;;;;18.29;58.31;101374.09;677054;29;1317;-82
2022/07/14 04:26:31;;;;;;;13.90;5.50;;;;;;;18.25;58.37;101361.75;677107;29;1333;-82
2022/07/14 04:26:53;;;;;;;12.15;5.32;;;;;;;18.30;58.37;101369.69;677043;29;1357;-82
2022/07/14 04:27:15;;;;;;;13.82;5.00;;;;;;;18.22;58.44;101365.25;676967;29;1325;-83
2022/07/14 04:27:36;;;;;;;13.27;4.80;;;;;;;18.26;58.49;101371.44;674419;29;1247;-81
2022/07/14 04:27:59;;;;;;;11.20;4.20;;;;;;;18.24;58.42;101364.41;677787;29;1431;-82
2022/07/14 04:28:23;;;;;;;14.23;4.05;;;;;;;18.24;58.52;101367.91;674453;29;1608;-83
2022/07/14 04:28:46;;;;;;;15.48;4.50;;;;;;;18.24;58.32;101362.63;677033;29;1899;-82
2022/07/14 04:29:10;;;;;;;13.60;4.55;;;;;;;18.22;58.56;101370.53;681199;29;1365;-83
2022/07/14 04:29:34;;;;;;;12.15;4.20;;;;;;;18.24;58.48;101367.91;681388;28;1910;-82
2022/07/14 04:29:55;;;;;;;13.35;4.45;;;;;;;18.25;58.38;101372.31;684862;28;1214;-82
2022/07/14 04:30:16;;;;;;;13.33;4.57;;;;;;;18.20;58.59;101366.13;677151;29;1347;-83
2022/07/14 04:30:38;;;;;;;14.45;4.60;;;;;;;18.22;58.56;101372.31;678799;29;1246;-82
2022/07/14 04:31:02;;;;;;;12.43;4.78;;;;;;;18.22;58.45;101367.00;682155;29;2340;-82
2022/07/14 04:31:24;;;;;;;13.20;5.05;;;;;;;18.19;58.46;101367.00;677722;29;1665;-82
2022/07/14 04:31:46;;;;;;;11.52;5.00;;;;;;;18.23;58.43;101376.69;679696;29;1250;-82
2022/07/14 04:32:13;;;;;;;13.00;4.70;;;;;;;18.23;58.41;101366.13;679751;29;1388;-81
2022/07/14 04:32:35;;;;;;;12.80;4.38;;;;;;;18.21;58.56;101366.13;674685;29;1230;-82
2022/07/14 04:33:02;;;;;;;13.15;4.18;;;;;;;18.21;58.30;101374.03;677012;29;1419;-82
2022/07/14 04:33:37;;;;;;;18.40;4.95;;;;;;;18.21;58.37;101373.19;675414;29;2049;-82
2022/07/14 04:34:00;;;;;;;18.45;5.00;;;;;;;18.20;58.31;101372.28;678220;29;2003;-82
2022/07/14 04:34:21;;;;;;;12.07;4.22;;;;;;;18.22;58.39;101375.81;677784;29;1619;-82
2022/07/14 04:34:44;;;;;;;9.98;4.35;;;;;;;18.19;58.29;101361.72;680950;29;1208;-82
2022/07/14 04:35:06;;;;;;;10.63;4.63;;;;;;;18.21;58.36;101373.19;672666;29;1407;-83
2022/07/14 04:35:29;;;;;;;12.65;4.88;;;;;;;18.21;58.28;101371.41;674147;29;987;-81
2022/07/14 04:35:52;;;;;;;13.15;4.90;;;;;;;18.22;58.39;101373.16;677058;29;1272;-83
2022/07/14 04:36:16;;;;;;;14.15;5.10;;;;;;;18.19;58.36;101373.16;678710;29;1313;-83
2022/07/14 04:36:40;;;;;;;11.07;4.60;;;;;;;18.18;58.38;101365.22;676979;29;1259;-82
2022/07/14 04:37:06;;;;;;;11.38;4.28;;;;;;;18.15;58.18;101362.56;674100;29;1166;-81
2022/07/14 04:37:29;;;;;;;12.15;4.20;;;;;;;18.21;58.41;101373.19;672154;29;1433;-82
2022/07/14 04:37:52;;;;;;;13.00;4.30;;;;;;;18.18;58.24;101373.13;676223;29;1121;-83
2022/07/14 04:38:20;;;;;;;12.98;4.50;;;;;;;18.20;58.26;101374.06;682749;28;1576;-82
2022/07/14 04:38:45;;;;;;;12.35;4.60;;;;;;;18.18;58.33;101370.50;683251;28;1216;-81
2022/07/14 04:39:06;;;;;;;11.95;4.30;;;;;;;18.16;58.35;101370.50;679538;29;1445;-81
2022/07/14 04:39:29;;;;;;;10.32;3.97;;;;;;;18.17;58.49;101376.66;679396;29;1302;-81
2022/07/14 04:39:51;;;;;;;8.85;3.90;;;;;;;18.17;58.03;101374.03;671931;29;1469;-82
2022/07/14 04:40:12;;;;;;;12.25;4.38;;;;;;;18.15;58.36;101374.03;677157;29;1283;-82
2022/07/14 04:40:33;;;;;;;13.93;4.50;;;;;;;18.18;58.40;101374.03;679499;29;1527;-83
2022/07/14 04:40:54;;;;;;;14.93;4.65;;;;;;;18.15;58.39;101373.13;679652;29;1006;-84
2022/07/14 04:41:17;;;;;;;13.10;5.32;;;;;;;18.15;58.31;101367.84;676265;29;1254;-82
2022/07/14 04:41:40;;;;;;;10.95;5.07;;;;;;;18.16;58.30;101375.78;680796;29;1334;-81
2022/07/14 04:42:00;;;;;;;13.18;5.25;;;;;;;18.14;58.40;101371.34;682665;28;1301;-82
2022/07/14 04:42:22;;;;;;;13.68;4.88;;;;;;;18.12;58.26;101370.44;678562;29;1543;-82
2022/07/14 04:42:44;;;;;;;13.40;4.80;;;;;;;18.12;58.39;101373.97;677749;29;1255;-82
2022/07/14 04:43:06;;;;;;;13.32;4.78;;;;;;;18.13;58.30;101374.84;675017;29;1645;-82
2022/07/14 04:43:59;;;;;;;11.93;4.50;;;;;;;18.17;58.34;101384.59;671636;29;1517;-82
2022/07/14 04:44:24;;;;;;;13.45;4.70;;;;;;;18.12;58.44;101378.38;675615;29;1558;-82
2022/07/14 04:44:47;;;;;;;15.00;4.90;;;;;;;18.11;58.32;101379.22;676832;29;1529;-82
2022/07/14 04:45:08;;;;;;;16.15;5.13;;;;;;;18.12;58.34;101378.38;681004;29;1524;-82
2022/07/14 04:45:32;;;;;;;13.60;4.68;;;;;;;18.06;58.56;101368.63;676583;29;1584;-83
2022/07/14 04:45:57;;;;;;;13.35;4.30;;;;;;;18.06;58.42;101376.56;672540;29;1441;-82
2022/07/14 04:46:31;;;;;;;12.75;4.43;;;;;;;18.06;58.34;101376.56;676886;29;2279;-82
2022/07/14 04:46:56;;;;;;;12.93;5.03;;;;;;;18.03;58.30;101371.25;676988;29;1180;-81
2022/07/14 04:47:17;;;;;;;13.90;4.95;;;;;;;18.06;58.43;101382.75;676807;29;1442;-82
2022/07/14 04:47:39;;;;;;;13.95;4.78;;;;;;;18.04;58.43;101384.50;676522;29;1398;-81
2022/07/14 04:48:01;;;;;;;12.57;4.65;;;;;;;18.04;58.51;101386.22;680401;29;1380;-82
2022/07/14 04:48:22;;;;;;;8.32;4.00;;;;;;;17.98;58.47;101378.25;676871;29;1160;-81
2022/07/14 04:52:12;;;;;;;11.98;4.72;;;;;;;17.94;58.75;101395.84;679687;29;1151;-82
2022/07/14 04:52:49;;;;;;;13.55;4.75;;;;;;;17.89;58.79;101387.88;674085;29;1331;-82
2022/07/14 04:53:47;;;;;;;13.85;5.47;;;;;;;17.88;58.77;101390.53;674266;29;1279;-82
2022/07/14 04:54:36;;;;;;;15.23;4.80;;;;;;;17.89;58.94;101393.16;673237;29;1499;-82
2022/07/14 04:55:18;;;;;;;15.68;4.88;;;;;;;17.84;58.98;101391.38;677019;29;1431;-82
2022/07/14 04:55:54;;;;;;;15.52;4.93;;;;;;;17.87;59.05;101386.09;671917;29;2081;-82
2022/07/14 04:56:34;;;;;;;15.15;4.68;;;;;;;17.84;58.97;101383.44;675449;29;2319;-83
2022/07/14 04:57:09;;;;;;;15.20;4.40;;;;;;;17.80;59.04;101378.16;677137;29;1046;-82
2022/07/14 04:57:35;;;;;;;13.45;4.65;;;;;;;17.83;58.97;101386.97;677631;29;1171;-82
2022/07/14 04:58:00;;;;;;;9.98;4.70;;;;;;;17.81;59.06;101379.94;674530;29;1276;-82
2022/07/14 04:58:24;;;;;;;9.13;4.90;;;;;;;17.79;59.10;101381.69;674616;29;2043;-82
2022/07/14 04:58:46;;;;;;;11.15;5.18;;;;;;;17.78;58.94;101382.53;676700;29;1171;-82
2022/07/14 04:59:07;;;;;;;13.50;5.22;;;;;;;17.77;58.85;101386.03;677109;29;1266;-82
2022/07/14 04:59:32;;;;;;;15.10;4.95;;;;;;;17.73;58.98;101381.63;677139;29;1363;-83
2022/07/14 04:59:54;;;;;;;15.63;4.65;;;;;;;17.76;58.76;101383.41;675850;29;1199;-83
2022/07/14 05:00:16;;;;;;;14.52;4.68;;;;;;;17.74;59.57;101383.38;680153;28;1533;-81
2022/07/14 05:00:39;;;;;;;14.38;4.50;;;;;;;17.72;59.22;101382.50;677130;29;1098;-83
2022/07/14 05:01:01;;;;;;;13.43;4.40;;;;;;;17.73;59.21;101381.63;677232;29;1382;-82
2022/07/14 05:01:30;;;;;;;15.00;4.90;;;;;;;17.72;59.11;101374.59;677120;29;1603;-82
2022/07/14 05:01:52;;;;;;;14.80;5.28;;;;;;;17.72;59.23;101386.88;679597;29;1437;-82
2022/07/14 05:02:14;;;;;;;13.95;5.38;;;;;;;17.73;59.30;101386.91;679817;29;1241;-82
2022/07/14 05:02:37;;;;;;;12.38;5.10;;;;;;;17.72;59.23;101389.53;678387;29;1428;-82
2022/07/14 05:03:13;;;;;;;12.40;4.80;;;;;;;17.65;59.29;101380.69;677131;29;1576;-82
2022/07/14 05:03:36;;;;;;;12.07;4.70;;;;;;;17.67;59.32;101392.13;679876;29;1505;-82
2022/07/14 05:03:59;;;;;;;12.80;5.28;;;;;;;17.68;59.29;101383.34;679981;29;1353;-82
2022/07/14 05:04:21;;;;;;;13.65;5.22;;;;;;;17.69;59.42;101387.72;676742;29;1468;-82
2022/07/14 05:04:45;;;;;;;14.80;5.10;;;;;;;17.67;59.30;101387.75;679024;29;1378;-82
2022/07/14 05:05:10;;;;;;;16.25;5.10;;;;;;;17.67;59.22;101379.81;682032;29;1254;-82
2022/07/14 05:05:47;;;;;;;17.60;5.45;;;;;;;17.75;59.31;101390.44;680512;29;1530;-82
2022/07/14 05:06:11;;;;;;;13.68;4.85;;;;;;;17.70;59.38;101386.84;670816;29;1427;-82
2022/07/14 05:06:33;;;;;;;11.48;4.70;;;;;;;17.71;59.20;101387.75;671584;29;1970;-82
2022/07/14 05:06:57;;;;;;;14.27;5.10;;;;;;;17.73;59.49;101381.63;679053;29;1436;-83
2022/07/14 05:07:19;;;;;;;14.25;4.90;;;;;;;17.76;59.32;101393.97;676639;29;1529;-82
2022/07/14 05:07:48;;;;;;;15.88;5.13;;;;;;;17.75;59.29;101390.44;676466;29;1575;-81
2022/07/14 05:08:10;;;;;;;18.20;5.60;;;;;;;17.75;59.32;101384.25;676247;29;1698;-82
2022/07/14 05:08:41;;;;;;;17.50;6.00;;;;;;;17.79;59.36;101389.59;679536;29;1563;-82
2022/07/14 05:09:04;;;;;;;16.33;5.40;;;;;;;17.77;59.32;101380.75;677090;29;1139;-82
2022/07/14 05:09:33;;;;;;;14.73;5.10;;;;;;;17.75;59.24;101378.97;676889;29;1722;-82
2022/07/14 05:09:55;;;;;;;15.50;5.25;;;;;;;17.75;59.31;101379.88;682027;29;1045;-82
2022/07/14 05:10:17;;;;;;;15.05;5.28;;;;;;;17.76;59.13;101381.63;676065;29;1882;-82
2022/07/14 05:10:38;;;;;;;12.25;5.25;;;;;;;17.81;59.30;101389.59;671325;29;1228;-82
2022/07/14 05:11:01;;;;;;;10.18;4.70;;;;;;;17.78;59.21;101390.44;674578;29;1260;-82
2022/07/14 05:11:23;;;;;;;10.82;4.70;;;;;;;17.76;59.24;101380.78;671926;29;1382;-82
2022/07/14 05:11:44;;;;;;;11.30;4.50;;;;;;;17.80;59.17;101387.81;678604;29;1235;-82
2022/07/14 05:12:07;;;;;;;12.20;4.80;;;;;;;17.83;59.30;101394.88;683318;28;1144;-82
2022/07/14 05:12:30;;;;;;;13.23;5.13;;;;;;;17.83;59.24;101386.97;679298;29;1618;-82
2022/07/14 05:12:54;;;;;;;13.65;5.30;;;;;;;17.77;59.23;101383.41;675522;29;1191;-82
2022/07/14 05:13:16;;;;;;;16.08;5.65;;;;;;;17.85;59.14;101390.50;678757;29;1145;-82
2022/07/14 05:13:39;;;;;;;13.23;5.05;;;;;;;17.79;59.24;101386.97;676033;29;1909;-82
2022/07/14 05:14:00;;;;;;;14.05;5.63;;;;;;;17.84;59.25;101384.34;677168;29;1155;-82
2022/07/14 05:14:24;;;;;;;12.05;5.20;;;;;;;17.80;59.19;101380.81;676711;29;1329;-82
2022/07/14 05:14:46;;;;;;;12.57;5.18;;;;;;;17.81;59.33;101379.94;680935;29;1096;-82
2022/07/14 05:15:08;;;;;;;12.75;4.90;;;;;;;17.78;58.98;101379.88;679233;29;1198;-82
2022/07/14 05:15:30;;;;;;;12.93;4.85;;;;;;;17.78;59.47;101384.28;680219;29;1411;-82
2022/07/14 05:15:52;;;;;;;13.02;4.70;;;;;;;17.78;59.21;101385.16;677046;29;1023;-82
2022/07/14 05:16:14;;;;;;;12.98;4.65;;;;;;;17.80;59.13;101388.72;671863;29;1330;-83
2022/07/14 05:16:38;;;;;;;11.00;4.60;;;;;;;17.84;59.07;101384.34;677792;29;1456;-83
2022/07/14 05:17:00;;;;;;;10.85;4.60;;;;;;;17.84;58.99;101383.44;677183;29;1112;-82
2022/07/14 05:17:23;;;;;;;10.50;4.25;;;;;;;17.87;58.97;101386.09;677200;29;1226;-82
2022/07/14 05:17:53;;;;;;;13.40;4.68;;;;;;;17.84;59.20;101381.72;676918;29;1387;-83
2022/07/14 05:18:16;;;;;;;15.30;5.00;;;;;;;17.84;59.08;101376.44;676601;29;2287;-82
2022/07/14 05:18:38;;;;;;;15.32;4.93;;;;;;;17.89;59.12;101382.59;679129;29;1440;-82
2022/07/14 05:19:00;;;;;;;17.00;5.20;;;;;;;17.91;59.06;101382.63;674402;29;1370;-83
2022/07/14 05:19:22;;;;;;;16.58;5.40;;;;;;;17.92;58.98;101377.38;675248;29;1259;-82
2022/07/14 05:19:50;;;;;;;14.63;4.90;;;;;;;17.97;58.82;101380.03;676703;29;1234;-82
2022/07/14 05:20:13;;;;;;;10.07;4.45;;;;;;;17.93;58.91;101368.56;674888;29;1134;-82
2022/07/14 05:20:38;;;;;;;9.95;4.43;;;;;;;17.99;58.74;101373.00;679317;29;1684;-82
2022/07/14 05:20:59;;;;;;;12.32;4.82;;;;;;;18.05;58.64;101385.34;676215;29;1636;-82
2022/07/14 05:21:21;;;;;;;12.77;4.68;;;;;;;18.07;58.67;101381.84;679545;29;1668;-81
2022/07/14 05:21:44;;;;;;;20.65;5.05;;;;;;;18.08;58.57;101382.75;676979;29;1257;-82
2022/07/14 05:22:06;;;;;;;21.77;5.30;;;;;;;18.13;58.81;101377.50;677081;29;1809;-82
2022/07/14 05:22:35;;;;;;;20.90;5.30;;;;;;;18.12;58.48;101379.25;676600;29;1117;-82
2022/07/14 05:22:56;;;;;;;12.98;4.70;;;;;;;18.19;58.48;101382.88;679336;29;2195;-82
2022/07/14 05:23:18;;;;;;;12.82;4.50;;;;;;;18.18;58.33;101378.41;682106;29;1356;-82
2022/07/14 05:23:41;;;;;;;13.25;5.10;;;;;;;18.24;58.18;101377.59;677315;29;1172;-83
2022/07/14 05:24:05;;;;;;;12.20;5.25;;;;;;;18.26;58.18;101381.13;676894;29;1725;-82
2022/07/14 05:24:26;;;;;;;13.27;5.20;;;;;;;18.28;58.13;101380.25;678246;29;1610;-82
2022/07/14 05:24:47;;;;;;;11.88;5.00;;;;;;;18.30;58.01;101373.22;677095;29;1238;-82
2022/07/14 05:25:10;;;;;;;12.15;4.70;;;;;;;18.38;58.05;101377.66;677139;29;1132;-82
2022/07/14 05:25:31;;;;;;;14.15;5.30;;;;;;;18.41;57.90;101377.66;674571;29;1327;-82
2022/07/14 05:25:54;;;;;;;15.40;5.35;;;;;;;18.44;57.75;101380.34;679191;29;1419;-82
2022/07/14 05:26:17;;;;;;;15.75;5.72;;;;;;;18.46;57.86;101373.31;679949;29;1122;-82
2022/07/14 05:26:40;;;;;;;12.75;5.10;;;;;;;18.44;57.50;101375.06;675901;29;1322;-82
2022/07/14 05:27:02;;;;;;;14.80;5.20;;;;;;;18.51;57.71;101379.50;674996;29;1091;-82
2022/07/14 05:27:27;;;;;;;16.75;5.22;;;;;;;18.51;57.60;101382.16;678583;29;1316;-82
2022/07/14 05:27:49;;;;;;;14.65;5.35;;;;;;;18.54;57.26;101371.56;677629;29;979;-83
2022/07/14 05:28:35;;;;;;;8.95;4.30;;;;;;;18.63;57.18;101376.91;680819;29;1498;-83
2022/07/14 05:28:58;;;;;;;9.10;4.22;;;;;;;18.64;57.10;101383.94;680393;29;963;-82
2022/07/14 05:29:20;;;;;;;9.63;4.57;;;;;;;18.69;56.93;101383.97;681680;29;1152;-81
2022/07/14 05:29:41;;;;;;;12.05;4.97;;;;;;;18.71;56.75;101376.03;671228;29;1266;-81
2022/07/14 05:30:05;;;;;;;10.95;4.70;;;;;;;18.76;56.76;101387.53;674808;29;1247;-82
2022/07/14 05:30:32;;;;;;;13.98;5.05;;;;;;;18.77;56.48;101378.72;684992;28;1265;-82
2022/07/14 05:30:57;;;;;;;13.00;4.93;;;;;;;18.81;56.45;101376.97;677532;29;1405;-82
2022/07/14 05:31:25;;;;;;;12.85;4.80;;;;;;;18.88;56.32;101386.69;678032;29;1668;-82
2022/07/14 05:31:47;;;;;;;12.88;4.65;;;;;;;18.91;56.30;101387.59;682366;29;1317;-82
2022/07/14 05:32:08;;;;;;;12.15;4.90;;;;;;;18.93;56.10;101373.47;682585;29;1324;-82
2022/07/14 05:32:30;;;;;;;11.68;4.65;;;;;;;18.98;55.99;101382.28;674802;29;1342;-82
2022/07/14 05:32:54;;;;;;;8.65;4.70;;;;;;;19.00;55.80;101370.84;674502;29;1262;-84
2022/07/14 05:33:18;;;;;;;6.93;3.92;;;;;;;19.02;55.75;101379.69;678696;29;1646;-83